createdAt,value
2019-04-22T00:01:25.280Z,41.60
2019-04-22T00:04:00.690Z,41.50
2019-04-22T00:06:45.298Z,41.50
2019-04-22T00:09:19.113Z,41.50
2019-04-22T00:11:54.577Z,41.60
2019-04-22T00:14:11.661Z,41.60
2019-04-22T00:19:30.354Z,41.90
2019-04-22T00:22:09.272Z,41.90
2019-04-22T00:24:38.951Z,41.90
2019-04-22T00:27:13.784Z,42.10
2019-04-22T00:32:11.650Z,42.60
2019-04-22T00:34:53.723Z,42.60
2019-04-22T00:37:23.607Z,42.60
2019-04-22T00:39:52.084Z,42.40
2019-04-22T00:42:27.486Z,42.40
2019-04-22T00:45:03.287Z,42.40
2019-04-22T00:47:28.007Z,42.60
2019-04-22T00:50:12.666Z,42.80
2019-04-22T00:52:35.786Z,42.80
2019-04-22T00:55:06.093Z,42.90
2019-04-22T00:57:35.754Z,43.00
2019-04-22T01:00:19.887Z,43.10
2019-04-22T01:02:49.473Z,43.00
2019-04-22T01:05:21.422Z,43.10
2019-04-22T01:07:53.241Z,43.20
2019-04-22T01:10:25.593Z,43.30
2019-04-22T01:12:54.663Z,43.40
2019-04-22T01:15:24.764Z,43.50
2019-04-22T01:17:52.931Z,43.80
2019-04-22T01:20:51.932Z,43.90
2019-04-22T01:22:53.227Z,44.10
2019-04-22T01:25:26.420Z,44.20
2019-04-22T01:27:54.417Z,44.30
2019-04-22T01:30:17.220Z,44.40
2019-04-22T01:32:44.876Z,44.50
2019-04-22T01:35:27.065Z,44.70
2019-04-22T01:38:07.835Z,44.80
2019-04-22T01:40:49.556Z,44.90
2019-04-22T01:43:22.902Z,45.10
2019-04-22T01:45:54.698Z,45.20
2019-04-22T01:48:26.900Z,45.30
2019-04-22T01:50:50.223Z,45.40
2019-04-22T01:53:28.233Z,45.40
2019-04-22T01:55:57.418Z,45.40
2019-04-22T01:58:23.436Z,45.50
2019-04-22T02:01:04.651Z,45.60
2019-04-22T02:03:44.711Z,45.70
2019-04-22T02:06:07.499Z,45.80
2019-04-22T02:08:44.966Z,45.80
2019-04-22T02:11:35.182Z,45.90
2019-04-22T02:14:09.137Z,46.00
2019-04-22T02:16:36.179Z,46.20
2019-04-22T02:19:25.445Z,46.30
2019-04-22T02:22:04.168Z,46.50
2019-04-22T02:24:35.330Z,46.70
2019-04-22T02:27:30.662Z,46.80
2019-04-22T02:30:26.567Z,46.90
2019-04-22T02:32:48.586Z,47.10
2019-04-22T02:35:25.961Z,47.40
2019-04-22T02:37:35.851Z,47.40
2019-04-22T02:40:20.619Z,47.70
2019-04-22T02:42:42.875Z,47.80
2019-04-22T02:45:23.168Z,47.80
2019-04-22T02:48:10.812Z,47.90
2019-04-22T02:50:39.000Z,48.20
2019-04-22T02:55:23.551Z,48.30
2019-04-22T02:57:47.425Z,48.40
2019-04-22T03:05:56.702Z,48.40
2019-04-22T03:08:10.825Z,48.40
2019-04-22T03:10:39.303Z,48.50
2019-04-22T03:13:01.011Z,48.40
2019-04-22T03:15:30.895Z,48.40
2019-04-22T03:18:20.019Z,48.50
2019-04-22T03:20:33.914Z,48.70
2019-04-22T03:23:17.657Z,48.80
2019-04-22T03:28:01.905Z,49.00
2019-04-22T03:33:16.421Z,49.20
2019-04-22T03:38:41.857Z,49.40
2019-04-22T03:43:35.965Z,49.70
2019-04-22T03:45:46.338Z,49.80
2019-04-22T03:48:27.079Z,49.90
2019-04-22T03:51:11.478Z,50.00
2019-04-22T03:53:56.506Z,50.10
2019-04-22T03:56:11.736Z,50.20
2019-04-22T03:58:41.004Z,50.30
2019-04-22T04:01:13.922Z,50.60
2019-04-22T04:03:29.043Z,50.80
2019-04-22T04:06:02.147Z,51.00
2019-04-22T04:08:33.303Z,51.10
2019-04-22T04:11:20.526Z,51.10
2019-04-22T04:13:41.520Z,51.20
2019-04-22T04:16:14.910Z,51.40
2019-04-22T04:21:26.900Z,51.50
2019-04-22T04:26:28.848Z,51.50
2019-04-22T04:31:25.617Z,51.60
2019-04-22T04:36:28.774Z,51.80
2019-04-22T04:38:53.882Z,51.80
2019-04-22T04:41:42.049Z,51.90
2019-04-22T04:44:03.839Z,51.80
2019-04-22T04:51:33.821Z,52.10
2019-04-22T04:54:04.167Z,52.20
2019-04-22T05:01:35.290Z,52.20
2019-04-22T05:06:42.903Z,52.30
2019-04-22T05:09:22.483Z,52.30
2019-04-22T05:11:53.952Z,52.40
2019-04-22T05:14:14.425Z,52.20
2019-04-22T05:16:51.888Z,52.20
2019-04-22T05:19:15.401Z,52.10
2019-04-22T05:21:50.179Z,52.00
2019-04-22T05:24:26.220Z,51.90
2019-04-22T05:26:50.724Z,51.80
2019-04-22T05:29:23.464Z,51.80
2019-04-22T05:31:52.246Z,51.70
2019-04-22T05:34:22.815Z,51.60
2019-04-22T05:36:58.940Z,51.60
2019-04-22T05:39:45.445Z,51.60
2019-04-22T05:42:12.663Z,51.60
2019-04-22T05:44:43.995Z,51.50
2019-04-22T05:47:15.003Z,51.60
2019-04-22T05:49:41.754Z,51.60
2019-04-22T05:52:17.259Z,51.70
2019-04-22T05:54:50.495Z,51.80
2019-04-22T05:57:18.591Z,51.90
2019-04-22T05:59:56.357Z,52.00
2019-04-22T06:02:36.031Z,51.70
2019-04-22T06:05:01.683Z,51.70
2019-04-22T06:07:24.101Z,51.90
2019-04-22T06:10:02.352Z,51.90
2019-04-22T06:12:20.848Z,51.80
2019-04-22T06:15:01.300Z,51.80
2019-04-22T06:17:31.317Z,52.10
2019-04-22T06:20:00.635Z,51.90
2019-04-22T06:22:40.005Z,51.80
2019-04-22T06:25:33.781Z,51.70
2019-04-22T06:27:37.069Z,51.60
2019-04-22T06:30:04.981Z,51.60
2019-04-22T06:32:32.552Z,51.40
2019-04-22T06:35:21.470Z,50.90
2019-04-22T06:37:46.475Z,50.30
2019-04-22T06:40:15.929Z,50.10
2019-04-22T06:42:42.455Z,50.00
2019-04-22T06:45:10.791Z,49.70
2019-04-22T06:47:51.325Z,49.30
2019-04-22T06:50:16.930Z,48.80
2019-04-22T06:52:38.159Z,48.50
2019-04-22T06:55:16.382Z,48.50
2019-04-22T06:57:43.568Z,47.70
2019-04-22T07:00:22.550Z,47.30
2019-04-22T07:03:10.955Z,47.30
2019-04-22T07:05:17.349Z,46.90
2019-04-22T07:07:45.011Z,46.40
2019-04-22T07:10:33.759Z,45.70
2019-04-22T07:12:49.290Z,46.00
2019-04-22T07:15:39.405Z,46.10
2019-04-22T07:17:56.816Z,45.30
2019-04-22T07:20:24.214Z,44.90
2019-04-22T07:22:59.959Z,44.00
2019-04-22T07:25:25.000Z,43.50
2019-04-22T07:28:11.205Z,44.20
2019-04-22T07:30:26.411Z,43.80
2019-04-22T07:33:15.109Z,43.80
2019-04-22T07:35:36.265Z,43.50
2019-04-22T07:38:04.628Z,43.50
2019-04-22T07:40:40.384Z,42.90
2019-04-22T07:43:04.390Z,42.80
2019-04-22T07:45:40.895Z,42.10
2019-04-22T07:48:09.565Z,41.60
2019-04-22T07:50:49.405Z,41.20
2019-04-22T07:53:08.454Z,40.90
2019-04-22T07:55:41.830Z,40.80
2019-04-22T08:00:53.113Z,39.70
2019-04-22T08:03:18.489Z,39.80
2019-04-22T08:05:58.587Z,39.60
2019-04-22T08:08:26.104Z,39.00
2019-04-22T08:10:48.485Z,38.30
2019-04-22T08:13:16.966Z,38.10
2019-04-22T08:15:54.006Z,37.80
2019-04-22T08:18:22.097Z,37.60
2019-04-22T08:20:54.040Z,36.80
2019-04-22T08:23:24.312Z,36.80
2019-04-22T08:25:55.737Z,36.70
2019-04-22T08:28:30.320Z,36.60
2019-04-22T08:31:01.891Z,36.50
2019-04-22T08:33:35.337Z,36.20
2019-04-22T08:38:39.494Z,35.10
2019-04-22T08:41:24.811Z,35.00
2019-04-22T08:46:24.221Z,34.40
2019-04-22T08:48:49.476Z,34.40
2019-04-22T08:51:23.443Z,34.40
2019-04-22T08:53:51.849Z,34.80
2019-04-22T08:56:29.784Z,33.90
2019-04-22T08:58:59.954Z,33.70
2019-04-22T09:01:27.168Z,33.50
2019-04-22T09:03:58.581Z,33.40
2019-04-22T09:06:38.457Z,33.70
2019-04-22T09:09:01.851Z,33.70
2019-04-22T09:11:35.542Z,32.40
2019-04-22T09:14:08.666Z,32.20
2019-04-22T09:16:58.186Z,32.00
2019-04-22T09:19:12.282Z,31.00
2019-04-22T09:21:54.439Z,31.10
2019-04-22T09:24:19.637Z,30.00
2019-04-22T09:26:48.667Z,29.90
2019-04-22T09:29:20.707Z,29.60
2019-04-22T09:31:53.608Z,29.10
2019-04-22T09:34:23.411Z,29.20
2019-04-22T09:36:59.446Z,28.50
2019-04-22T09:39:21.754Z,28.50
2019-04-22T09:41:52.111Z,29.20
2019-04-22T09:44:32.721Z,29.50
2019-04-22T09:47:00.439Z,29.00
2019-04-22T09:52:02.977Z,28.40
2019-04-22T09:54:43.724Z,28.00
2019-04-22T09:57:02.200Z,28.10
2019-04-22T09:59:36.765Z,28.50
2019-04-22T10:02:19.591Z,28.10
2019-04-22T10:04:41.941Z,27.60
2019-04-22T10:07:10.743Z,27.40
2019-04-22T10:12:11.942Z,27.00
2019-04-22T10:14:48.012Z,26.90
2019-04-22T10:17:13.902Z,25.40
2019-04-22T10:19:41.078Z,25.90
2019-04-22T10:22:19.723Z,26.00
2019-04-22T10:24:44.648Z,25.90
2019-04-22T10:27:13.995Z,24.80
2019-04-22T10:29:54.199Z,24.50
2019-04-22T10:32:14.736Z,23.90
2019-04-22T10:34:36.040Z,23.90
2019-04-22T10:36:59.984Z,24.20
2019-04-22T10:39:42.030Z,24.20
2019-04-22T10:42:04.958Z,24.30
2019-04-22T10:44:35.310Z,24.50
2019-04-22T10:47:04.661Z,24.10
2019-04-22T10:49:34.172Z,23.70
2019-04-22T10:52:04.615Z,23.60
2019-04-22T10:54:35.692Z,23.40
2019-04-22T10:57:04.778Z,23.70
2019-04-22T10:59:34.428Z,23.50
2019-04-22T11:02:03.769Z,22.60
2019-04-22T11:04:34.276Z,21.30
2019-04-22T11:07:07.274Z,21.70
2019-04-22T11:09:48.630Z,21.40
2019-04-22T11:12:13.870Z,20.80
2019-04-22T11:14:41.410Z,20.70
2019-04-22T11:17:09.020Z,21.00
2019-04-22T11:19:39.482Z,20.80
2019-04-22T11:22:16.870Z,21.60
2019-04-22T11:24:41.074Z,22.10
2019-04-22T11:27:10.750Z,22.20
2019-04-22T11:29:41.550Z,21.60
2019-04-22T11:32:12.928Z,20.80
2019-04-22T11:34:44.822Z,20.30
2019-04-22T11:37:16.485Z,20.90
2019-04-22T11:39:50.640Z,21.50
2019-04-22T11:42:18.228Z,21.50
2019-04-22T11:44:47.585Z,21.90
2019-04-22T11:47:17.147Z,20.50
2019-04-22T11:49:52.360Z,21.20
2019-04-22T11:52:22.642Z,21.40
2019-04-22T11:54:55.007Z,20.60
2019-04-22T11:57:25.341Z,20.40
2019-04-22T11:59:54.794Z,20.40
2019-04-22T12:02:33.117Z,20.00
2019-04-22T12:05:03.725Z,20.40
2019-04-22T12:07:35.279Z,21.00
2019-04-22T12:10:17.858Z,20.30
2019-04-22T12:12:39.721Z,20.30
2019-04-22T12:15:08.972Z,19.70
2019-04-22T12:17:38.292Z,20.60
2019-04-22T12:20:12.560Z,20.00
2019-04-22T12:22:41.033Z,19.80
2019-04-22T12:25:12.454Z,20.30
2019-04-22T12:27:43.056Z,20.30
2019-04-22T12:30:19.539Z,20.10
2019-04-22T12:32:50.412Z,20.10
2019-04-22T12:35:20.428Z,20.10
2019-04-22T12:37:54.041Z,19.80
2019-04-22T12:40:33.843Z,20.10
2019-04-22T12:42:53.512Z,20.30
2019-04-22T12:45:24.483Z,20.30
2019-04-22T12:47:53.974Z,20.40
2019-04-22T12:50:29.239Z,20.60
2019-04-22T12:52:59.341Z,20.50
2019-04-22T12:55:26.020Z,20.40
2019-04-22T12:58:15.763Z,20.20
2019-04-22T13:00:45.110Z,20.30
2019-04-22T13:03:15.813Z,20.40
2019-04-22T13:05:46.973Z,20.50
2019-04-22T13:08:17.874Z,19.80
2019-04-22T13:10:55.272Z,19.70
2019-04-22T13:13:18.925Z,19.80
2019-04-22T13:15:48.926Z,20.30
2019-04-22T13:18:40.344Z,20.80
2019-04-22T13:21:04.252Z,20.50
2019-04-22T13:23:34.097Z,20.50
2019-04-22T13:26:03.452Z,19.80
2019-04-22T13:28:34.643Z,20.30
2019-04-22T13:31:05.648Z,20.60
2019-04-22T13:33:35.096Z,20.40
2019-04-22T13:36:05.812Z,20.30
2019-04-22T13:38:35.431Z,19.40
2019-04-22T13:41:17.286Z,19.20
2019-04-22T13:43:36.666Z,19.10
2019-04-22T13:46:08.011Z,18.70
2019-04-22T13:49:00.522Z,19.00
2019-04-22T13:51:40.962Z,19.30
2019-04-22T13:56:31.474Z,18.90
2019-04-22T13:58:54.115Z,19.60
2019-04-22T14:01:14.534Z,18.60
2019-04-22T14:03:54.425Z,19.00
2019-04-22T14:06:24.834Z,18.80
2019-04-22T14:08:55.693Z,18.90
2019-04-22T14:11:32.393Z,18.90
2019-04-22T14:13:56.718Z,19.00
2019-04-22T14:16:33.339Z,19.10
2019-04-22T14:19:03.289Z,18.80
2019-04-22T14:21:32.766Z,18.70
2019-04-22T14:24:02.708Z,19.00
2019-04-22T14:26:44.282Z,18.90
2019-04-22T14:29:04.110Z,18.90
2019-04-22T14:31:38.301Z,18.80
2019-04-22T14:34:10.197Z,19.20
2019-04-22T14:36:39.366Z,19.20
2019-04-22T14:39:12.424Z,19.20
2019-04-22T14:41:57.447Z,19.20
2019-04-22T14:47:15.824Z,18.80
2019-04-22T14:49:36.661Z,19.10
2019-04-22T14:52:13.596Z,18.60
2019-04-22T14:54:34.868Z,19.20
2019-04-22T14:56:52.215Z,19.00
2019-04-22T14:59:22.976Z,19.20
2019-04-22T15:01:54.092Z,19.20
2019-04-22T15:04:23.563Z,18.40
2019-04-22T15:06:54.730Z,18.30
2019-04-22T15:09:24.189Z,18.60
2019-04-22T15:12:08.334Z,18.20
2019-04-22T15:14:25.674Z,18.70
2019-04-22T15:17:00.798Z,18.80
2019-04-22T15:19:35.820Z,18.80
2019-04-22T15:22:05.202Z,18.60
2019-04-22T15:24:54.487Z,18.50
2019-04-22T15:27:25.250Z,18.60
2019-04-22T15:29:54.844Z,18.40
2019-04-22T15:32:25.308Z,18.30
2019-04-22T15:34:55.390Z,18.20
2019-04-22T15:37:24.695Z,17.90
2019-04-22T15:39:56.693Z,17.90
2019-04-22T15:42:28.691Z,18.30
2019-04-22T15:44:56.047Z,18.50
2019-04-22T15:47:46.191Z,18.70
2019-04-22T15:50:19.076Z,18.30
2019-04-22T15:52:51.936Z,18.60
2019-04-22T15:55:20.601Z,19.10
2019-04-22T15:57:50.075Z,19.80
2019-04-22T16:00:51.689Z,21.00
2019-04-22T16:03:12.490Z,21.60
2019-04-22T16:05:43.906Z,22.80
2019-04-22T16:08:14.863Z,22.50
2019-04-22T16:10:46.220Z,22.70
2019-04-22T16:13:22.364Z,22.90
2019-04-22T16:15:48.810Z,22.30
2019-04-22T16:18:20.023Z,22.20
2019-04-22T16:20:50.527Z,22.20
2019-04-22T16:23:24.616Z,22.40
2019-04-22T16:25:56.842Z,22.60
2019-04-22T16:28:27.003Z,22.70
2019-04-22T16:30:57.642Z,23.10
2019-04-22T16:33:36.409Z,22.60
2019-04-22T16:36:11.230Z,22.60
2019-04-22T16:38:40.817Z,23.00
2019-04-22T16:41:10.886Z,22.40
2019-04-22T16:43:40.738Z,22.30
2019-04-22T16:46:10.122Z,22.60
2019-04-22T16:48:47.676Z,22.40
2019-04-22T16:51:20.170Z,22.40
2019-04-22T16:53:50.791Z,22.90
2019-04-22T16:56:20.606Z,23.00
2019-04-22T16:58:50.737Z,23.10
2019-04-22T17:01:38.778Z,23.40
2019-04-22T17:04:26.107Z,23.60
2019-04-22T17:06:57.666Z,23.90
2019-04-22T17:09:27.837Z,24.40
2019-04-22T17:11:58.070Z,23.90
2019-04-22T17:14:35.918Z,23.90
2019-04-22T17:16:58.305Z,24.00
2019-04-22T17:19:29.081Z,23.90
2019-04-22T17:21:59.565Z,24.00
2019-04-22T17:24:30.006Z,24.00
2019-04-22T17:27:00.131Z,24.20
2019-04-22T17:29:30.446Z,24.30
2019-04-22T17:32:06.406Z,24.30
2019-04-22T17:34:31.779Z,24.30
2019-04-22T17:37:04.123Z,24.40
2019-04-22T17:39:45.355Z,24.50
2019-04-22T17:42:27.824Z,24.60
2019-04-22T17:45:03.175Z,24.70
2019-04-22T17:47:28.747Z,24.70
2019-04-22T17:50:10.672Z,24.70
2019-04-22T17:52:37.173Z,24.90
2019-04-22T17:55:05.046Z,25.10
2019-04-22T17:57:39.349Z,25.40
2019-04-22T18:00:06.897Z,25.30
2019-04-22T18:02:33.969Z,25.10
2019-04-22T18:05:03.763Z,25.20
2019-04-22T18:07:52.187Z,25.30
2019-04-22T18:10:36.181Z,25.40
2019-04-22T18:13:00.080Z,25.60
2019-04-22T18:15:26.940Z,25.60
2019-04-22T18:18:00.991Z,25.50
2019-04-22T18:20:27.193Z,25.70
2019-04-22T18:22:52.249Z,25.90
2019-04-22T18:25:22.390Z,26.00
2019-04-22T18:28:09.108Z,26.10
2019-04-22T18:30:27.455Z,26.20
2019-04-22T18:33:04.197Z,25.70
2019-04-22T18:35:31.949Z,26.30
2019-04-22T18:38:11.238Z,26.30
2019-04-22T18:40:37.069Z,26.50
2019-04-22T18:43:16.781Z,26.60
2019-04-22T18:45:51.999Z,26.80
2019-04-22T18:47:59.825Z,26.90
2019-04-22T18:50:49.884Z,27.10
2019-04-22T18:53:25.200Z,27.20
2019-04-22T18:56:10.205Z,27.30
2019-04-22T18:58:33.232Z,27.50
2019-04-22T19:00:48.467Z,27.60
2019-04-22T19:03:25.774Z,27.60
2019-04-22T19:06:27.490Z,28.20
2019-04-22T19:08:43.357Z,27.80
2019-04-22T19:11:11.140Z,27.90
2019-04-22T19:13:59.192Z,27.90
2019-04-22T19:16:25.807Z,28.00
2019-04-22T19:18:50.521Z,28.10
2019-04-22T19:21:16.107Z,28.30
2019-04-22T19:23:51.931Z,28.30
2019-04-22T19:26:30.261Z,28.40
2019-04-22T19:28:49.664Z,28.50
2019-04-22T19:31:27.132Z,28.70
2019-04-22T19:33:56.298Z,28.90
2019-04-22T19:36:48.571Z,29.00
2019-04-22T19:39:13.218Z,29.10
2019-04-22T19:41:50.238Z,29.40
2019-04-22T19:44:17.603Z,29.40
2019-04-22T19:46:55.644Z,30.00
2019-04-22T19:49:24.549Z,30.50
2019-04-22T19:51:57.404Z,30.90
2019-04-22T19:54:19.087Z,31.40
2019-04-22T19:56:44.524Z,31.90
2019-04-22T19:59:17.760Z,32.40
2019-04-22T20:02:10.337Z,32.60
2019-04-22T20:04:52.934Z,32.90
2019-04-22T20:07:15.520Z,33.20
2019-04-22T20:09:53.740Z,33.40
2019-04-22T20:12:21.757Z,33.60
2019-04-22T20:14:49.398Z,33.80
2019-04-22T20:17:28.947Z,34.20
2019-04-22T20:20:02.315Z,34.30
2019-04-22T20:22:25.310Z,34.60
2019-04-22T20:24:47.478Z,34.60
2019-04-22T20:27:35.190Z,34.90
2019-04-22T20:29:59.303Z,35.10
2019-04-22T20:32:26.592Z,35.20
2019-04-22T20:35:04.135Z,35.20
2019-04-22T20:37:36.818Z,35.50
2019-04-22T20:40:08.426Z,35.50
2019-04-22T20:42:46.730Z,35.60
2019-04-22T20:45:10.319Z,35.70
2019-04-22T20:47:32.247Z,35.80
2019-04-22T20:50:14.375Z,36.00
2019-04-22T20:52:48.704Z,36.10
2019-04-22T20:55:08.002Z,36.20
2019-04-22T20:57:48.371Z,36.30
2019-04-22T21:00:12.007Z,36.40
2019-04-22T21:02:32.432Z,36.30
2019-04-22T21:05:02.208Z,36.40
2019-04-22T21:07:38.377Z,36.40
2019-04-22T21:10:13.221Z,36.50
2019-04-22T21:12:36.629Z,36.30
2019-04-22T21:15:24.147Z,36.30
2019-04-22T21:17:44.855Z,36.30
2019-04-22T21:20:28.703Z,36.20
2019-04-22T21:22:47.992Z,36.30
2019-04-22T21:25:19.592Z,36.40
2019-04-22T21:27:56.879Z,36.40
2019-04-22T21:30:26.476Z,36.40
2019-04-22T21:32:58.317Z,36.40
2019-04-22T21:35:51.861Z,36.40
2019-04-22T21:38:06.527Z,36.40
2019-04-22T21:40:36.113Z,36.60
2019-04-22T21:43:07.115Z,36.70
2019-04-22T21:45:27.848Z,36.60
2019-04-22T21:48:20.579Z,36.80
2019-04-22T21:53:14.300Z,36.80
2019-04-22T21:55:49.181Z,36.80
2019-04-22T21:58:36.299Z,36.80
2019-04-22T22:01:14.078Z,36.90
2019-04-22T22:03:23.698Z,37.00
2019-04-22T22:05:45.977Z,36.90
2019-04-22T22:08:27.553Z,37.20
2019-04-22T22:11:06.379Z,36.90
2019-04-22T22:13:44.403Z,37.10
2019-04-22T22:16:06.667Z,37.30
2019-04-22T22:18:35.313Z,37.60
2019-04-22T22:21:26.847Z,37.60
2019-04-22T22:23:45.673Z,38.40
2019-04-22T22:26:09.572Z,37.90
2019-04-22T22:28:52.127Z,38.50
2019-04-22T22:31:21.975Z,37.80
2019-04-22T22:33:54.345Z,37.70
2019-04-22T22:36:17.897Z,37.90
2019-04-22T22:38:46.966Z,37.90
2019-04-22T22:41:01.526Z,38.00
2019-04-22T22:43:37.525Z,38.20
2019-04-22T22:46:15.022Z,38.30
2019-04-22T22:49:00.385Z,38.30
2019-04-22T22:51:34.258Z,38.50
2019-04-22T22:54:00.800Z,38.90
2019-04-22T22:56:38.964Z,38.70
2019-04-22T22:58:58.656Z,38.80
2019-04-22T23:01:36.770Z,38.90
2019-04-22T23:04:26.456Z,39.10
2019-04-22T23:06:50.001Z,39.30
2019-04-22T23:09:22.496Z,39.50
2019-04-22T23:12:06.962Z,39.50
2019-04-22T23:14:30.032Z,39.60
2019-04-22T23:16:47.498Z,39.70
2019-04-22T23:19:09.419Z,39.90
2019-04-22T23:21:45.527Z,40.00
2019-04-22T23:24:37.888Z,40.30
2019-04-22T23:27:11.721Z,40.20
2019-04-22T23:29:57.488Z,40.20
2019-04-22T23:32:38.859Z,40.30
2019-04-22T23:35:33.549Z,40.50
2019-04-22T23:38:06.278Z,40.60
2019-04-22T23:40:45.570Z,40.70
2019-04-22T23:43:32.757Z,40.70
2019-04-22T23:46:02.320Z,41.00
2019-04-22T23:48:27.252Z,41.10
2019-04-22T23:51:02.939Z,41.10
2019-04-22T23:53:57.607Z,41.20
2019-04-22T23:56:04.693Z,41.30
